sensor_id;sensor_type;location;lat;lon;timestamp;P1;durP1;ratioP1;P2;durP2;ratioP2
5058;SDS011;2548;52.050;11.036;2022-10-16T00:00:03;1.15;;;1.15;;
5058;SDS011;2548;52.050;11.036;2022-10-16T00:02:32;4.40;;;1.05;;
5058;SDS011;2548;52.050;11.036;2022-10-16T00:05:00;1.20;;;1.20;;
5058;SDS011;2548;52.050;11.036;2022-10-16T00:07:27;1.35;;;1.25;;
5058;SDS011;2548;52.050;11.036;2022-10-16T00:09:54;1.25;;;1.15;;
5058;SDS011;2548;52.050;11.036;2022-10-16T00:12:22;1.20;;;1.20;;
5058;SDS011;2548;52.050;11.036;2022-10-16T00:14:49;2.45;;;1.10;;
5058;SDS011;2548;52.050;11.036;2022-10-16T00:17:17;1.20;;;1.20;;
5058;SDS011;2548;52.050;11.036;2022-10-16T00:19:46;2.58;;;1.30;;
5058;SDS011;2548;52.050;11.036;2022-10-16T00:22:13;4.25;;;1.15;;
5058;SDS011;2548;52.050;11.036;2022-10-16T00:24:40;1.73;;;1.10;;
5058;SDS011;2548;52.050;11.036;2022-10-16T00:27:08;1.05;;;0.95;;
5058;SDS011;2548;52.050;11.036;2022-10-16T00:29:35;1.15;;;1.05;;
5058;SDS011;2548;52.050;11.036;2022-10-16T00:32:03;1.10;;;1.10;;
5058;SDS011;2548;52.050;11.036;2022-10-16T00:34:30;3.70;;;1.10;;
5058;SDS011;2548;52.050;11.036;2022-10-16T00:36:59;2.28;;;1.67;;
5058;SDS011;2548;52.050;11.036;2022-10-16T00:39:26;1.63;;;1.52;;
5058;SDS011;2548;52.050;11.036;2022-10-16T00:41:54;0.82;;;0.80;;
5058;SDS011;2548;52.050;11.036;2022-10-16T00:47:09;1.33;;;1.23;;
5058;SDS011;2548;52.050;11.036;2022-10-16T00:49:38;1.20;;;1.10;;
5058;SDS011;2548;52.050;11.036;2022-10-16T00:52:07;1.23;;;1.13;;
5058;SDS011;2548;52.050;11.036;2022-10-16T00:54:34;1.20;;;1.20;;
5058;SDS011;2548;52.050;11.036;2022-10-16T00:57:03;1.67;;;1.40;;
5058;SDS011;2548;52.050;11.036;2022-10-16T00:59:33;2.20;;;1.60;;
5058;SDS011;2548;52.050;11.036;2022-10-16T01:02:02;1.00;;;1.00;;
5058;SDS011;2548;52.050;11.036;2022-10-16T01:04:31;1.20;;;1.20;;
5058;SDS011;2548;52.050;11.036;2022-10-16T01:07:02;4.50;;;1.40;;
5058;SDS011;2548;52.050;11.036;2022-10-16T01:09:40;1.17;;;1.17;;
5058;SDS011;2548;52.050;11.036;2022-10-16T01:12:14;1.35;;;1.20;;
5058;SDS011;2548;52.050;11.036;2022-10-16T01:14:47;1.35;;;1.30;;
5058;SDS011;2548;52.050;11.036;2022-10-16T01:17:21;1.55;;;1.20;;
5058;SDS011;2548;52.050;11.036;2022-10-16T01:20:07;4.22;;;1.38;;
5058;SDS011;2548;52.050;11.036;2022-10-16T01:22:46;2.13;;;1.15;;
5058;SDS011;2548;52.050;11.036;2022-10-16T01:25:34;1.00;;;1.00;;
5058;SDS011;2548;52.050;11.036;2022-10-16T01:28:14;2.78;;;1.45;;
5058;SDS011;2548;52.050;11.036;2022-10-16T01:30:44;1.42;;;1.33;;
5058;SDS011;2548;52.050;11.036;2022-10-16T01:33:14;1.42;;;1.40;;
5058;SDS011;2548;52.050;11.036;2022-10-16T01:35:45;1.52;;;1.42;;
5058;SDS011;2548;52.050;11.036;2022-10-16T01:38:18;1.20;;;1.20;;
5058;SDS011;2548;52.050;11.036;2022-10-16T01:40:51;1.30;;;1.30;;
5058;SDS011;2548;52.050;11.036;2022-10-16T01:43:25;1.63;;;1.52;;
5058;SDS011;2548;52.050;11.036;2022-10-16T01:45:57;1.45;;;1.35;;
5058;SDS011;2548;52.050;11.036;2022-10-16T01:48:27;2.00;;;1.90;;
5058;SDS011;2548;52.050;11.036;2022-10-16T01:50:57;2.42;;;2.33;;
5058;SDS011;2548;52.050;11.036;2022-10-16T01:53:27;2.65;;;2.45;;
5058;SDS011;2548;52.050;11.036;2022-10-16T01:55:55;2.22;;;2.13;;
5058;SDS011;2548;52.050;11.036;2022-10-16T01:58:26;2.05;;;1.95;;
5058;SDS011;2548;52.050;11.036;2022-10-16T02:00:59;2.33;;;2.13;;
5058;SDS011;2548;52.050;11.036;2022-10-16T02:03:28;2.65;;;2.45;;
5058;SDS011;2548;52.050;11.036;2022-10-16T02:05:56;2.05;;;1.90;;
5058;SDS011;2548;52.050;11.036;2022-10-16T02:08:27;1.75;;;1.65;;
5058;SDS011;2548;52.050;11.036;2022-10-16T02:10:56;3.33;;;2.10;;
5058;SDS011;2548;52.050;11.036;2022-10-16T02:13:28;1.80;;;1.70;;
5058;SDS011;2548;52.050;11.036;2022-10-16T02:15:59;1.60;;;1.60;;
5058;SDS011;2548;52.050;11.036;2022-10-16T02:18:27;3.58;;;1.80;;
5058;SDS011;2548;52.050;11.036;2022-10-16T02:20:57;4.85;;;2.10;;
5058;SDS011;2548;52.050;11.036;2022-10-16T02:23:29;1.70;;;1.60;;
5058;SDS011;2548;52.050;11.036;2022-10-16T02:26:04;1.60;;;1.50;;
5058;SDS011;2548;52.050;11.036;2022-10-16T02:28:38;1.48;;;1.48;;
5058;SDS011;2548;52.050;11.036;2022-10-16T02:31:12;1.85;;;1.75;;
5058;SDS011;2548;52.050;11.036;2022-10-16T02:33:45;5.78;;;1.50;;
5058;SDS011;2548;52.050;11.036;2022-10-16T02:36:13;1.75;;;1.65;;
5058;SDS011;2548;52.050;11.036;2022-10-16T02:38:40;2.90;;;1.90;;
5058;SDS011;2548;52.050;11.036;2022-10-16T02:41:08;5.00;;;2.35;;
5058;SDS011;2548;52.050;11.036;2022-10-16T02:43:35;1.60;;;1.50;;
5058;SDS011;2548;52.050;11.036;2022-10-16T02:46:04;1.50;;;1.40;;
5058;SDS011;2548;52.050;11.036;2022-10-16T02:48:31;5.57;;;2.40;;
5058;SDS011;2548;52.050;11.036;2022-10-16T02:50:59;2.45;;;2.00;;
5058;SDS011;2548;52.050;11.036;2022-10-16T02:53:26;1.77;;;1.67;;
5058;SDS011;2548;52.050;11.036;2022-10-16T02:55:53;1.80;;;1.70;;
5058;SDS011;2548;52.050;11.036;2022-10-16T02:58:21;2.03;;;1.92;;
5058;SDS011;2548;52.050;11.036;2022-10-16T03:00:50;1.88;;;1.77;;
5058;SDS011;2548;52.050;11.036;2022-10-16T03:03:17;2.38;;;2.13;;
5058;SDS011;2548;52.050;11.036;2022-10-16T03:05:45;2.30;;;2.15;;
5058;SDS011;2548;52.050;11.036;2022-10-16T03:08:12;4.50;;;2.55;;
5058;SDS011;2548;52.050;11.036;2022-10-16T03:10:40;2.20;;;2.10;;
5058;SDS011;2548;52.050;11.036;2022-10-16T03:13:07;2.95;;;2.80;;
5058;SDS011;2548;52.050;11.036;2022-10-16T03:15:34;3.30;;;2.50;;
5058;SDS011;2548;52.050;11.036;2022-10-16T03:18:03;2.97;;;2.78;;
5058;SDS011;2548;52.050;11.036;2022-10-16T03:20:30;3.10;;;2.90;;
5058;SDS011;2548;52.050;11.036;2022-10-16T03:22:58;3.20;;;3.00;;
5058;SDS011;2548;52.050;11.036;2022-10-16T03:25:25;4.32;;;2.95;;
5058;SDS011;2548;52.050;11.036;2022-10-16T03:27:52;3.40;;;3.20;;
5058;SDS011;2548;52.050;11.036;2022-10-16T03:30:20;3.83;;;3.25;;
5058;SDS011;2548;52.050;11.036;2022-10-16T03:32:47;4.45;;;3.40;;
5058;SDS011;2548;52.050;11.036;2022-10-16T03:35:20;3.30;;;3.08;;
5058;SDS011;2548;52.050;11.036;2022-10-16T03:37:48;3.38;;;3.17;;
5058;SDS011;2548;52.050;11.036;2022-10-16T03:40:16;2.90;;;2.80;;
5058;SDS011;2548;52.050;11.036;2022-10-16T03:42:43;2.55;;;2.45;;
5058;SDS011;2548;52.050;11.036;2022-10-16T03:45:11;6.43;;;2.67;;
5058;SDS011;2548;52.050;11.036;2022-10-16T03:47:38;3.55;;;2.60;;
5058;SDS011;2548;52.050;11.036;2022-10-16T03:50:06;3.45;;;3.15;;
5058;SDS011;2548;52.050;11.036;2022-10-16T03:52:35;3.22;;;2.95;;
5058;SDS011;2548;52.050;11.036;2022-10-16T03:55:03;2.85;;;2.60;;
5058;SDS011;2548;52.050;11.036;2022-10-16T03:57:30;6.88;;;3.20;;
5058;SDS011;2548;52.050;11.036;2022-10-16T03:59:58;4.70;;;3.05;;
5058;SDS011;2548;52.050;11.036;2022-10-16T04:02:25;3.50;;;2.80;;
5058;SDS011;2548;52.050;11.036;2022-10-16T04:04:52;3.10;;;2.90;;
5058;SDS011;2548;52.050;11.036;2022-10-16T04:07:20;3.55;;;3.35;;
5058;SDS011;2548;52.050;11.036;2022-10-16T04:09:48;3.08;;;2.95;;
5058;SDS011;2548;52.050;11.036;2022-10-16T04:12:17;4.15;;;3.22;;
5058;SDS011;2548;52.050;11.036;2022-10-16T04:14:45;3.08;;;2.97;;
5058;SDS011;2548;52.050;11.036;2022-10-16T04:17:12;3.25;;;2.95;;
5058;SDS011;2548;52.050;11.036;2022-10-16T04:19:39;6.78;;;3.05;;
5058;SDS011;2548;52.050;11.036;2022-10-16T04:22:06;3.13;;;2.92;;
5058;SDS011;2548;52.050;11.036;2022-10-16T04:24:34;3.13;;;3.03;;
5058;SDS011;2548;52.050;11.036;2022-10-16T04:27:03;4.18;;;2.72;;
5058;SDS011;2548;52.050;11.036;2022-10-16T04:29:30;2.58;;;2.47;;
5058;SDS011;2548;52.050;11.036;2022-10-16T04:31:57;2.78;;;2.58;;
5058;SDS011;2548;52.050;11.036;2022-10-16T04:34:25;2.95;;;2.85;;
5058;SDS011;2548;52.050;11.036;2022-10-16T04:36:52;3.38;;;3.17;;
5058;SDS011;2548;52.050;11.036;2022-10-16T04:39:19;2.45;;;2.35;;
5058;SDS011;2548;52.050;11.036;2022-10-16T04:41:47;2.65;;;2.55;;
5058;SDS011;2548;52.050;11.036;2022-10-16T04:44:15;2.60;;;2.50;;
5058;SDS011;2548;52.050;11.036;2022-10-16T04:46:43;3.38;;;2.65;;
5058;SDS011;2548;52.050;11.036;2022-10-16T04:49:11;2.50;;;2.40;;
5058;SDS011;2548;52.050;11.036;2022-10-16T04:51:38;2.65;;;2.53;;
5058;SDS011;2548;52.050;11.036;2022-10-16T04:54:05;6.50;;;2.13;;
5058;SDS011;2548;52.050;11.036;2022-10-16T04:56:32;2.75;;;2.55;;
5058;SDS011;2548;52.050;11.036;2022-10-16T04:59:05;2.80;;;2.70;;
5058;SDS011;2548;52.050;11.036;2022-10-16T05:01:34;2.13;;;2.03;;
5058;SDS011;2548;52.050;11.036;2022-10-16T05:04:01;2.20;;;2.10;;
5058;SDS011;2548;52.050;11.036;2022-10-16T05:06:29;3.20;;;3.00;;
5058;SDS011;2548;52.050;11.036;2022-10-16T05:08:57;3.13;;;2.95;;
5058;SDS011;2548;52.050;11.036;2022-10-16T05:11:24;2.63;;;2.42;;
5058;SDS011;2548;52.050;11.036;2022-10-16T05:13:51;3.05;;;2.50;;
5058;SDS011;2548;52.050;11.036;2022-10-16T05:16:19;2.42;;;2.33;;
5058;SDS011;2548;52.050;11.036;2022-10-16T05:18:47;3.22;;;3.03;;
5058;SDS011;2548;52.050;11.036;2022-10-16T05:21:15;3.83;;;3.10;;
5058;SDS011;2548;52.050;11.036;2022-10-16T05:23:42;9.50;;;2.53;;
5058;SDS011;2548;52.050;11.036;2022-10-16T05:26:10;3.75;;;2.60;;
5058;SDS011;2548;52.050;11.036;2022-10-16T05:28:37;2.97;;;2.85;;
5058;SDS011;2548;52.050;11.036;2022-10-16T05:31:05;2.70;;;2.60;;
5058;SDS011;2548;52.050;11.036;2022-10-16T05:33:33;2.15;;;2.05;;
5058;SDS011;2548;52.050;11.036;2022-10-16T05:36:02;2.47;;;2.38;;
5058;SDS011;2548;52.050;11.036;2022-10-16T05:38:30;4.05;;;2.58;;
5058;SDS011;2548;52.050;11.036;2022-10-16T05:40:58;2.70;;;2.50;;
5058;SDS011;2548;52.050;11.036;2022-10-16T05:43:26;4.13;;;2.92;;
5058;SDS011;2548;52.050;11.036;2022-10-16T05:45:55;6.68;;;4.22;;
5058;SDS011;2548;52.050;11.036;2022-10-16T05:48:23;4.43;;;2.65;;
5058;SDS011;2548;52.050;11.036;2022-10-16T05:51:00;4.50;;;2.97;;
5058;SDS011;2548;52.050;11.036;2022-10-16T05:53:31;8.10;;;2.65;;
5058;SDS011;2548;52.050;11.036;2022-10-16T05:55:59;4.35;;;2.70;;
5058;SDS011;2548;52.050;11.036;2022-10-16T05:58:28;7.43;;;2.65;;
5058;SDS011;2548;52.050;11.036;2022-10-16T06:00:57;12.38;;;3.60;;
5058;SDS011;2548;52.050;11.036;2022-10-16T06:03:27;7.25;;;3.10;;
5058;SDS011;2548;52.050;11.036;2022-10-16T06:05:54;3.58;;;2.47;;
5058;SDS011;2548;52.050;11.036;2022-10-16T06:08:23;3.33;;;3.03;;
5058;SDS011;2548;52.050;11.036;2022-10-16T06:10:59;3.70;;;3.40;;
5058;SDS011;2548;52.050;11.036;2022-10-16T06:13:27;4.00;;;3.10;;
5058;SDS011;2548;52.050;11.036;2022-10-16T06:15:56;3.25;;;3.05;;
5058;SDS011;2548;52.050;11.036;2022-10-16T06:18:24;3.08;;;2.60;;
5058;SDS011;2548;52.050;11.036;2022-10-16T06:20:51;3.65;;;3.55;;
5058;SDS011;2548;52.050;11.036;2022-10-16T06:23:19;4.90;;;2.95;;
5058;SDS011;2548;52.050;11.036;2022-10-16T06:25:47;6.65;;;3.20;;
5058;SDS011;2548;52.050;11.036;2022-10-16T06:28:15;2.78;;;2.67;;
5058;SDS011;2548;52.050;11.036;2022-10-16T06:30:43;6.32;;;2.72;;
5058;SDS011;2548;52.050;11.036;2022-10-16T06:33:11;15.80;;;3.20;;
5058;SDS011;2548;52.050;11.036;2022-10-16T06:35:38;2.42;;;2.28;;
5058;SDS011;2548;52.050;11.036;2022-10-16T06:38:06;5.57;;;3.70;;
5058;SDS011;2548;52.050;11.036;2022-10-16T06:40:33;3.10;;;2.90;;
5058;SDS011;2548;52.050;11.036;2022-10-16T06:43:02;21.55;;;2.78;;
5058;SDS011;2548;52.050;11.036;2022-10-16T06:45:29;7.05;;;3.90;;
5058;SDS011;2548;52.050;11.036;2022-10-16T06:47:57;2.90;;;2.70;;
5058;SDS011;2548;52.050;11.036;2022-10-16T06:50:24;3.22;;;2.95;;
5058;SDS011;2548;52.050;11.036;2022-10-16T06:52:51;4.47;;;2.90;;
5058;SDS011;2548;52.050;11.036;2022-10-16T06:55:19;3.65;;;3.42;;
5058;SDS011;2548;52.050;11.036;2022-10-16T06:57:46;3.35;;;2.55;;
5058;SDS011;2548;52.050;11.036;2022-10-16T07:00:15;3.13;;;2.95;;
5058;SDS011;2548;52.050;11.036;2022-10-16T07:02:42;5.22;;;4.18;;
5058;SDS011;2548;52.050;11.036;2022-10-16T07:05:10;2.60;;;2.50;;
5058;SDS011;2548;52.050;11.036;2022-10-16T07:07:37;3.38;;;2.55;;
5058;SDS011;2548;52.050;11.036;2022-10-16T07:10:05;10.90;;;3.10;;
5058;SDS011;2548;52.050;11.036;2022-10-16T07:12:32;6.13;;;3.80;;
5058;SDS011;2548;52.050;11.036;2022-10-16T07:15:00;9.85;;;3.97;;
5058;SDS011;2548;52.050;11.036;2022-10-16T07:17:28;18.45;;;4.63;;
5058;SDS011;2548;52.050;11.036;2022-10-16T07:19:56;12.93;;;4.22;;
5058;SDS011;2548;52.050;11.036;2022-10-16T07:22:23;3.28;;;3.08;;
5058;SDS011;2548;52.050;11.036;2022-10-16T07:24:51;3.80;;;3.55;;
5058;SDS011;2548;52.050;11.036;2022-10-16T07:27:18;3.33;;;3.17;;
5058;SDS011;2548;52.050;11.036;2022-10-16T07:29:47;3.53;;;3.42;;
5058;SDS011;2548;52.050;11.036;2022-10-16T07:32:15;3.50;;;3.30;;
5058;SDS011;2548;52.050;11.036;2022-10-16T07:34:43;4.00;;;3.80;;
5058;SDS011;2548;52.050;11.036;2022-10-16T07:37:11;6.45;;;4.13;;
5058;SDS011;2548;52.050;11.036;2022-10-16T07:39:38;3.65;;;3.45;;
5058;SDS011;2548;52.050;11.036;2022-10-16T07:42:06;5.57;;;3.88;;
5058;SDS011;2548;52.050;11.036;2022-10-16T07:44:33;3.90;;;3.60;;
5058;SDS011;2548;52.050;11.036;2022-10-16T07:47:00;4.68;;;4.28;;
5058;SDS011;2548;52.050;11.036;2022-10-16T07:49:28;3.83;;;3.58;;
5058;SDS011;2548;52.050;11.036;2022-10-16T07:51:57;3.95;;;3.70;;
5058;SDS011;2548;52.050;11.036;2022-10-16T07:54:24;4.90;;;3.40;;
5058;SDS011;2548;52.050;11.036;2022-10-16T07:56:51;3.15;;;3.00;;
5058;SDS011;2548;52.050;11.036;2022-10-16T07:59:19;4.60;;;4.20;;
5058;SDS011;2548;52.050;11.036;2022-10-16T08:01:46;3.97;;;3.67;;
5058;SDS011;2548;52.050;11.036;2022-10-16T08:04:15;4.35;;;4.00;;
5058;SDS011;2548;52.050;11.036;2022-10-16T08:06:42;4.47;;;4.18;;
5058;SDS011;2548;52.050;11.036;2022-10-16T08:09:11;5.40;;;3.70;;
5058;SDS011;2548;52.050;11.036;2022-10-16T08:11:38;4.10;;;3.90;;
5058;SDS011;2548;52.050;11.036;2022-10-16T08:14:05;3.25;;;3.05;;
5058;SDS011;2548;52.050;11.036;2022-10-16T08:16:33;3.63;;;2.88;;
5058;SDS011;2548;52.050;11.036;2022-10-16T08:19:00;6.65;;;2.80;;
5058;SDS011;2548;52.050;11.036;2022-10-16T08:21:28;3.13;;;3.03;;
5058;SDS011;2548;52.050;11.036;2022-10-16T08:23:55;2.97;;;2.78;;
5058;SDS011;2548;52.050;11.036;2022-10-16T08:26:24;2.45;;;2.30;;
5058;SDS011;2548;52.050;11.036;2022-10-16T08:28:52;2.05;;;1.95;;
5058;SDS011;2548;52.050;11.036;2022-10-16T08:31:20;1.92;;;1.92;;
5058;SDS011;2548;52.050;11.036;2022-10-16T08:33:48;2.20;;;2.08;;
5058;SDS011;2548;52.050;11.036;2022-10-16T08:36:16;2.75;;;2.55;;
5058;SDS011;2548;52.050;11.036;2022-10-16T08:38:46;1.75;;;1.65;;
5058;SDS011;2548;52.050;11.036;2022-10-16T08:41:21;2.33;;;2.22;;
5058;SDS011;2548;52.050;11.036;2022-10-16T08:44:02;2.55;;;1.40;;
5058;SDS011;2548;52.050;11.036;2022-10-16T08:46:42;1.40;;;1.40;;
5058;SDS011;2548;52.050;11.036;2022-10-16T08:49:15;1.50;;;1.40;;
5058;SDS011;2548;52.050;11.036;2022-10-16T08:51:42;1.83;;;1.10;;
5058;SDS011;2548;52.050;11.036;2022-10-16T08:54:15;0.90;;;0.90;;
5058;SDS011;2548;52.050;11.036;2022-10-16T08:56:50;2.03;;;1.10;;
5058;SDS011;2548;52.050;11.036;2022-10-16T08:59:20;0.70;;;0.70;;
5058;SDS011;2548;52.050;11.036;2022-10-16T09:01:49;1.20;;;1.20;;
5058;SDS011;2548;52.050;11.036;2022-10-16T09:04:34;1.52;;;1.42;;
5058;SDS011;2548;52.050;11.036;2022-10-16T09:07:20;1.08;;;1.08;;
5058;SDS011;2548;52.050;11.036;2022-10-16T09:09:58;0.80;;;0.80;;
5058;SDS011;2548;52.050;11.036;2022-10-16T09:12:36;1.33;;;0.85;;
5058;SDS011;2548;52.050;11.036;2022-10-16T09:15:10;1.23;;;1.10;;
5058;SDS011;2548;52.050;11.036;2022-10-16T09:17:48;4.53;;;1.25;;
5058;SDS011;2548;52.050;11.036;2022-10-16T09:20:25;1.60;;;0.77;;
5058;SDS011;2548;52.050;11.036;2022-10-16T09:23:00;3.28;;;1.17;;
5058;SDS011;2548;52.050;11.036;2022-10-16T09:25:40;3.08;;;0.80;;
5058;SDS011;2548;52.050;11.036;2022-10-16T09:28:12;1.00;;;0.70;;
5058;SDS011;2548;52.050;11.036;2022-10-16T09:30:39;2.40;;;0.98;;
5058;SDS011;2548;52.050;11.036;2022-10-16T09:33:07;1.13;;;0.90;;
5058;SDS011;2548;52.050;11.036;2022-10-16T09:35:37;1.63;;;0.70;;
5058;SDS011;2548;52.050;11.036;2022-10-16T09:38:05;1.23;;;0.70;;
5058;SDS011;2548;52.050;11.036;2022-10-16T09:40:34;0.70;;;0.70;;
5058;SDS011;2548;52.050;11.036;2022-10-16T09:43:07;0.77;;;0.77;;
5058;SDS011;2548;52.050;11.036;2022-10-16T09:45:53;1.00;;;1.00;;
5058;SDS011;2548;52.050;11.036;2022-10-16T09:48:22;0.82;;;0.82;;
5058;SDS011;2548;52.050;11.036;2022-10-16T09:50:56;1.00;;;0.90;;
5058;SDS011;2548;52.050;11.036;2022-10-16T09:53:25;1.63;;;0.80;;
5058;SDS011;2548;52.050;11.036;2022-10-16T09:56:04;5.23;;;0.60;;
5058;SDS011;2548;52.050;11.036;2022-10-16T09:58:34;3.35;;;0.70;;
5058;SDS011;2548;52.050;11.036;2022-10-16T10:01:01;0.70;;;0.68;;
5058;SDS011;2548;52.050;11.036;2022-10-16T10:03:35;1.00;;;0.80;;
5058;SDS011;2548;52.050;11.036;2022-10-16T10:06:06;0.82;;;0.70;;
5058;SDS011;2548;52.050;11.036;2022-10-16T10:08:52;0.70;;;0.70;;
5058;SDS011;2548;52.050;11.036;2022-10-16T10:11:37;0.68;;;0.68;;
5058;SDS011;2548;52.050;11.036;2022-10-16T10:14:08;1.33;;;0.60;;
5058;SDS011;2548;52.050;11.036;2022-10-16T10:16:45;0.80;;;0.70;;
5058;SDS011;2548;52.050;11.036;2022-10-16T10:19:16;1.80;;;0.85;;
5058;SDS011;2548;52.050;11.036;2022-10-16T10:21:44;5.40;;;0.70;;
5058;SDS011;2548;52.050;11.036;2022-10-16T10:24:12;0.82;;;0.68;;
5058;SDS011;2548;52.050;11.036;2022-10-16T10:26:41;1.13;;;0.80;;
5058;SDS011;2548;52.050;11.036;2022-10-16T10:29:18;2.55;;;1.42;;
5058;SDS011;2548;52.050;11.036;2022-10-16T10:31:57;4.53;;;0.80;;
5058;SDS011;2548;52.050;11.036;2022-10-16T10:34:37;0.75;;;0.75;;
5058;SDS011;2548;52.050;11.036;2022-10-16T10:37:20;0.77;;;0.77;;
5058;SDS011;2548;52.050;11.036;2022-10-16T10:39:58;7.00;;;0.60;;
5058;SDS011;2548;52.050;11.036;2022-10-16T10:42:31;3.42;;;1.27;;
5058;SDS011;2548;52.050;11.036;2022-10-16T10:45:17;0.65;;;0.65;;
5058;SDS011;2548;52.050;11.036;2022-10-16T10:47:48;0.90;;;0.60;;
5058;SDS011;2548;52.050;11.036;2022-10-16T10:50:30;2.40;;;0.80;;
5058;SDS011;2548;52.050;11.036;2022-10-16T10:53:07;0.87;;;0.70;;
5058;SDS011;2548;52.050;11.036;2022-10-16T10:55:44;1.60;;;0.60;;
5058;SDS011;2548;52.050;11.036;2022-10-16T11:01:16;0.68;;;0.68;;
5058;SDS011;2548;52.050;11.036;2022-10-16T11:03:55;0.50;;;0.50;;
5058;SDS011;2548;52.050;11.036;2022-10-16T11:06:42;2.55;;;0.98;;
5058;SDS011;2548;52.050;11.036;2022-10-16T11:09:15;2.42;;;0.70;;
5058;SDS011;2548;52.050;11.036;2022-10-16T11:11:47;1.00;;;0.98;;
5058;SDS011;2548;52.050;11.036;2022-10-16T11:14:21;0.70;;;0.60;;
5058;SDS011;2548;52.050;11.036;2022-10-16T11:16:58;1.13;;;0.70;;
5058;SDS011;2548;52.050;11.036;2022-10-16T11:19:32;1.33;;;0.60;;
5058;SDS011;2548;52.050;11.036;2022-10-16T11:22:04;1.50;;;0.60;;
5058;SDS011;2548;52.050;11.036;2022-10-16T11:24:41;2.35;;;0.70;;
5058;SDS011;2548;52.050;11.036;2022-10-16T11:27:14;1.27;;;1.17;;
5058;SDS011;2548;52.050;11.036;2022-10-16T11:29:46;0.70;;;0.70;;
5058;SDS011;2548;52.050;11.036;2022-10-16T11:32:23;4.10;;;0.90;;
5058;SDS011;2548;52.050;11.036;2022-10-16T11:34:57;2.05;;;0.70;;
5058;SDS011;2548;52.050;11.036;2022-10-16T11:37:30;1.42;;;0.70;;
5058;SDS011;2548;52.050;11.036;2022-10-16T11:40:05;0.70;;;0.70;;
5058;SDS011;2548;52.050;11.036;2022-10-16T11:42:48;1.83;;;0.65;;
5058;SDS011;2548;52.050;11.036;2022-10-16T11:45:24;1.20;;;0.90;;
5058;SDS011;2548;52.050;11.036;2022-10-16T11:48:02;2.03;;;1.15;;
5058;SDS011;2548;52.050;11.036;2022-10-16T11:50:41;1.42;;;0.60;;
5058;SDS011;2548;52.050;11.036;2022-10-16T11:53:16;3.55;;;1.10;;
5058;SDS011;2548;52.050;11.036;2022-10-16T11:55:55;1.08;;;0.70;;
5058;SDS011;2548;52.050;11.036;2022-10-16T11:58:25;1.25;;;0.75;;
5058;SDS011;2548;52.050;11.036;2022-10-16T12:00:59;0.90;;;0.70;;
5058;SDS011;2548;52.050;11.036;2022-10-16T12:03:40;6.47;;;0.80;;
5058;SDS011;2548;52.050;11.036;2022-10-16T12:06:15;0.75;;;0.60;;
5058;SDS011;2548;52.050;11.036;2022-10-16T12:08:53;1.77;;;0.82;;
5058;SDS011;2548;52.050;11.036;2022-10-16T12:11:24;3.60;;;0.88;;
5058;SDS011;2548;52.050;11.036;2022-10-16T12:14:07;0.87;;;0.60;;
5058;SDS011;2548;52.050;11.036;2022-10-16T12:16:54;0.80;;;0.80;;
5058;SDS011;2548;52.050;11.036;2022-10-16T12:19:26;3.13;;;0.70;;
5058;SDS011;2548;52.050;11.036;2022-10-16T12:21:57;3.50;;;0.60;;
5058;SDS011;2548;52.050;11.036;2022-10-16T12:24:35;0.90;;;0.77;;
5058;SDS011;2548;52.050;11.036;2022-10-16T12:27:17;1.13;;;0.80;;
5058;SDS011;2548;52.050;11.036;2022-10-16T12:29:53;2.43;;;0.80;;
5058;SDS011;2548;52.050;11.036;2022-10-16T12:32:25;0.80;;;0.80;;
5058;SDS011;2548;52.050;11.036;2022-10-16T12:34:58;3.57;;;0.60;;
5058;SDS011;2548;52.050;11.036;2022-10-16T12:37:28;1.43;;;0.60;;
5058;SDS011;2548;52.050;11.036;2022-10-16T12:40:10;1.53;;;0.90;;
5058;SDS011;2548;52.050;11.036;2022-10-16T12:42:40;5.00;;;0.53;;
5058;SDS011;2548;52.050;11.036;2022-10-16T12:45:23;0.97;;;0.87;;
5058;SDS011;2548;52.050;11.036;2022-10-16T12:47:53;2.20;;;0.63;;
5058;SDS011;2548;52.050;11.036;2022-10-16T12:50:28;0.60;;;0.50;;
5058;SDS011;2548;52.050;11.036;2022-10-16T12:52:57;1.40;;;0.60;;
5058;SDS011;2548;52.050;11.036;2022-10-16T12:55:25;1.73;;;0.60;;
5058;SDS011;2548;52.050;11.036;2022-10-16T12:58:00;2.30;;;0.90;;
5058;SDS011;2548;52.050;11.036;2022-10-16T13:00:41;6.57;;;0.77;;
5058;SDS011;2548;52.050;11.036;2022-10-16T13:03:28;3.03;;;0.97;;
5058;SDS011;2548;52.050;11.036;2022-10-16T13:06:18;0.82;;;0.63;;
5058;SDS011;2548;52.050;11.036;2022-10-16T13:09:00;1.73;;;0.60;;
5058;SDS011;2548;52.050;11.036;2022-10-16T13:11:41;2.80;;;0.60;;
5058;SDS011;2548;52.050;11.036;2022-10-16T13:14:22;0.60;;;0.57;;
5058;SDS011;2548;52.050;11.036;2022-10-16T13:17:07;1.27;;;0.83;;
5058;SDS011;2548;52.050;11.036;2022-10-16T13:19:42;2.33;;;0.70;;
5058;SDS011;2548;52.050;11.036;2022-10-16T13:22:22;0.60;;;0.50;;
5058;SDS011;2548;52.050;11.036;2022-10-16T13:25:00;3.30;;;0.70;;
5058;SDS011;2548;52.050;11.036;2022-10-16T13:27:40;0.60;;;0.53;;
5058;SDS011;2548;52.050;11.036;2022-10-16T13:30:15;1.10;;;0.63;;
5058;SDS011;2548;52.050;11.036;2022-10-16T13:32:46;1.13;;;0.63;;
5058;SDS011;2548;52.050;11.036;2022-10-16T13:35:19;1.27;;;0.97;;
5058;SDS011;2548;52.050;11.036;2022-10-16T13:37:49;1.10;;;0.70;;
5058;SDS011;2548;52.050;11.036;2022-10-16T13:40:18;4.30;;;0.97;;
5058;SDS011;2548;52.050;11.036;2022-10-16T13:42:48;2.10;;;0.80;;
5058;SDS011;2548;52.050;11.036;2022-10-16T13:45:17;0.87;;;0.60;;
5058;SDS011;2548;52.050;11.036;2022-10-16T13:47:45;2.33;;;0.60;;
5058;SDS011;2548;52.050;11.036;2022-10-16T13:50:13;0.80;;;0.80;;
5058;SDS011;2548;52.050;11.036;2022-10-16T13:52:42;1.40;;;0.60;;
5058;SDS011;2548;52.050;11.036;2022-10-16T13:55:15;0.50;;;0.50;;
5058;SDS011;2548;52.050;11.036;2022-10-16T13:57:44;2.50;;;0.70;;
5058;SDS011;2548;52.050;11.036;2022-10-16T14:00:17;2.63;;;0.70;;
5058;SDS011;2548;52.050;11.036;2022-10-16T14:02:49;2.63;;;0.70;;
5058;SDS011;2548;52.050;11.036;2022-10-16T14:05:19;1.40;;;0.60;;
5058;SDS011;2548;52.050;11.036;2022-10-16T14:07:47;1.03;;;0.47;;
5058;SDS011;2548;52.050;11.036;2022-10-16T14:10:21;1.53;;;0.80;;
5058;SDS011;2548;52.050;11.036;2022-10-16T14:12:55;2.20;;;0.60;;
5058;SDS011;2548;52.050;11.036;2022-10-16T14:15:24;1.90;;;0.67;;
5058;SDS011;2548;52.050;11.036;2022-10-16T14:17:52;0.70;;;0.70;;
5058;SDS011;2548;52.050;11.036;2022-10-16T14:20:20;1.63;;;0.60;;
5058;SDS011;2548;52.050;11.036;2022-10-16T14:22:58;0.60;;;0.53;;
5058;SDS011;2548;52.050;11.036;2022-10-16T14:25:29;0.90;;;0.90;;
5058;SDS011;2548;52.050;11.036;2022-10-16T14:27:59;1.20;;;0.57;;
5058;SDS011;2548;52.050;11.036;2022-10-16T14:30:29;1.13;;;0.80;;
5058;SDS011;2548;52.050;11.036;2022-10-16T14:32:59;3.03;;;0.90;;
5058;SDS011;2548;52.050;11.036;2022-10-16T14:35:30;1.70;;;0.70;;
5058;SDS011;2548;52.050;11.036;2022-10-16T14:37:59;1.23;;;0.50;;
5058;SDS011;2548;52.050;11.036;2022-10-16T14:40:29;1.07;;;0.60;;
5058;SDS011;2548;52.050;11.036;2022-10-16T14:42:59;1.57;;;0.60;;
5058;SDS011;2548;52.050;11.036;2022-10-16T14:45:29;1.90;;;0.60;;
5058;SDS011;2548;52.050;11.036;2022-10-16T14:47:58;0.73;;;0.73;;
5058;SDS011;2548;52.050;11.036;2022-10-16T14:50:29;1.17;;;0.50;;
5058;SDS011;2548;52.050;11.036;2022-10-16T14:52:57;1.83;;;0.60;;
5058;SDS011;2548;52.050;11.036;2022-10-16T14:55:26;1.03;;;0.53;;
5058;SDS011;2548;52.050;11.036;2022-10-16T14:57:55;0.90;;;0.60;;
5058;SDS011;2548;52.050;11.036;2022-10-16T15:00:23;1.43;;;0.50;;
5058;SDS011;2548;52.050;11.036;2022-10-16T15:02:51;0.90;;;0.50;;
5058;SDS011;2548;52.050;11.036;2022-10-16T15:05:19;0.67;;;0.67;;
5058;SDS011;2548;52.050;11.036;2022-10-16T15:07:50;0.68;;;0.68;;
5058;SDS011;2548;52.050;11.036;2022-10-16T15:10:19;1.53;;;0.70;;
5058;SDS011;2548;52.050;11.036;2022-10-16T15:12:49;0.60;;;0.50;;
5058;SDS011;2548;52.050;11.036;2022-10-16T15:15:23;0.60;;;0.60;;
5058;SDS011;2548;52.050;11.036;2022-10-16T15:17:59;1.10;;;1.00;;
5058;SDS011;2548;52.050;11.036;2022-10-16T15:20:30;2.90;;;0.60;;
5058;SDS011;2548;52.050;11.036;2022-10-16T15:23:00;1.27;;;0.50;;
5058;SDS011;2548;52.050;11.036;2022-10-16T15:25:31;0.60;;;0.60;;
5058;SDS011;2548;52.050;11.036;2022-10-16T15:28:05;0.60;;;0.57;;